• Join FlightAware (Why Join?)
  • Login
  • US Flag 
07:02PM EDT


 

Airport Tracker/Info


-or-


 

Live Flight TrackerFlight Track Log ✈ DAL1981 ✈ 25-Jul-2013 ✈ KSMF - KMSP

Flight Track Log - Related Links

Times and Time Zones

All times are in EDT time to prevent confusion due to time zone crossing. See the DAL1981 flight status page for this flight to view local times or setup timezone preferences in your user account.

Time Position Orientation Groundspeed Altitude Reporting Facility
EDT Latitude Longitude Course Direction KTS MPH feet Rate Location/Type
03:54PM 38.6667 -121.5667 78° East 156 180 1,300  Level Northern Cal TRACON
03:55PM 38.6333 -121.5167 130° Southeast 228 262 1,900 1,260 Climbing Northern Cal TRACON
03:56PM 38.4989 -121.2413 80° East  Level FlightAware Approximate
03:56PM 38.6333 -121.4333 90° East 270 311 3,900  Level Northern Cal TRACON
03:57PM 38.5375 -121.0794 76° East  Level FlightAware Approximate
03:58PM 38.5672 -120.9138 78° East  Level FlightAware Approximate
03:58PM 38.6464 -121.2206 85° East 291 335 8,400  Level Oakland Center
03:59PM 38.5949 -120.7477 78° East  Level FlightAware Approximate
03:59PM 38.6542 -121.1072 85° East 294 338 10,700  Level Oakland Center
04:00PM 38.6744 -120.9922 77° East 336 387 11,500 1,020 Climbing Oakland Center
04:01PM 38.7425 -120.8844 51° Northeast 386 444 12,900 1,560 Climbing Oakland Center
04:02PM 38.8111 -120.7744 51° Northeast 394 453 14,700 1,620 Climbing Oakland Center
04:03PM 38.8819 -120.6619 51° Northeast 404 465 16,300 1,740 Climbing Oakland Center
04:04PM 38.9667 -120.5222 52° Northeast 412 474 18,300 1,560 Climbing Oakland Center
04:05PM 39.0386 -120.4039 52° Northeast 419 482 19,600 1,140 Climbing Oakland Center
04:06PM 39.1147 -120.2814 51° Northeast 434 499 20,700 1,200 Climbing Oakland Center
04:07PM 39.1906 -120.1547 52° Northeast 444 511 22,100 1,260 Climbing Oakland Center
04:08PM 39.2753 -120.0225 50° Northeast 457 526 23,300 1,020 Climbing Oakland Center
04:09PM 39.3542 -119.8886 53° Northeast 464 534 24,300 1,020 Climbing Oakland Center
04:10PM 39.4364 -119.7558 51° Northeast 469 540 25,500 960 Climbing Oakland Center
04:11PM 39.5172 -119.6183 53° Northeast 478 550 26,300 720 Climbing Oakland Center
04:12PM 39.5994 -119.4786 53° Northeast 484 557 27,000 720 Climbing Oakland Center
04:13PM 39.6839 -119.3339 53° Northeast 497 572 27,800 720 Climbing Oakland Center
04:14PM 39.7703 -119.1878 52° Northeast 502 578 28,500 780 Climbing Oakland Center
04:15PM 39.8581 -119.0392 52° Northeast 511 588 29,400 960 Climbing Oakland Center
04:16PM 39.9619 -118.8594 53° Northeast 513 590 30,500 1,020 Climbing Oakland Center
04:17PM 40.0469 -118.7117 53° Northeast 509 586 31,500 840 Climbing Oakland Center
04:18PM 40.1244 -118.5597 56° Northeast 502 578 32,300 660 Climbing Oakland Center
04:19PM 40.1772 -118.3894 68° East 501 577 32,900 540 Climbing Oakland Center
04:20PM 40.2244 -118.2147 70° East 507 583 33,500 600 Climbing Oakland Center
04:21PM 40.2731 -118.0378 70° East 509 586 34,200 480 Climbing Salt Lake Center
04:22PM 40.3181 -117.8722 70° East 505 581 34,500 300 Climbing Salt Lake Center
04:23PM 40.3711 -117.6761 70° East 509 586 34,900 180 Climbing Oakland Center
04:24PM 40.4156 -117.5072 71° East 512 589 35,000  Climbing Oakland Center
04:25PM 40.4611 -117.3367 71° East 514 592 35,000  Level Salt Lake Center
04:26PM 40.5144 -117.1361 71° East 516 594 35,000  Level Salt Lake Center
04:28PM 40.5606 -116.9614 71° East 519 597 35,000  Level Salt Lake Center
04:29PM 40.6214 -116.7947 64° Northeast 520 598 35,000  Level Salt Lake Center
04:30PM 40.6931 -116.6067 63° Northeast 513 590 35,000  Level Salt Lake Center
04:31PM 40.7550 -116.4456 63° Northeast 512 589 35,000  Level Salt Lake Center
04:32PM 40.8283 -116.2586 63° Northeast 513 590 35,000  Level Salt Lake Center
04:33PM 40.8900 -116.0981 63° Northeast 512 589 35,000  Level Salt Lake Center
04:34PM 40.9600 -115.9131 63° Northeast 507 583 35,000  Level Salt Lake Center
04:35PM 41.0200 -115.7544 63° Northeast 505 581 35,000  Level Salt Lake Center
04:36PM 41.0906 -115.5686 63° Northeast 505 581 35,000  Level Salt Lake Center
04:37PM 41.1494 -115.4089 64° Northeast 504 580 35,000  Level Salt Lake Center
04:38PM 41.2192 -115.2236 63° Northeast 503 579 35,000  Level Salt Lake Center
04:39PM 41.2781 -115.0633 64° Northeast 504 580 35,000  Level Salt Lake Center
04:40PM 41.3378 -114.9031 64° Northeast 505 581 35,000  Level Salt Lake Center
04:41PM 41.4056 -114.7158 64° Northeast 503 579 35,000  Level Salt Lake Center
04:42PM 41.4658 -114.5497 64° Northeast 501 577 35,000  Level Salt Lake Center
04:43PM 41.5261 -114.3831 64° Northeast 499 574 35,000  Level Salt Lake Center
04:44PM 41.5856 -114.2181 64° Northeast 495 570 35,000  Level Salt Lake Center
04:45PM 41.6547 -114.0214 65° Northeast 490 564 35,000  Level Salt Lake Center
04:46PM 41.7133 -113.8558 65° Northeast 491 565 35,000  Level Salt Lake Center
04:47PM 41.7736 -113.6908 64° Northeast 492 566 35,000  Level Salt Lake Center
04:48PM 41.8311 -113.5236 65° Northeast 493 567 35,000  Level Salt Lake Center
04:49PM 41.8903 -113.3561 65° Northeast 494 568 35,000  Level Salt Lake Center
04:50PM 41.9481 -113.1883 65° Northeast 496 571 35,000  Level Salt Lake Center
04:51PM 42.0056 -113.0211 65° Northeast 494 568 35,000  Level Salt Lake Center
04:52PM 42.0753 -112.8175 65° Northeast 497 572 35,000  Level Salt Lake Center
04:53PM 42.1328 -112.6494 65° Northeast 496 571 35,000  Level Salt Lake Center
04:54PM 42.1897 -112.4792 66° East 496 571 35,000  Level Salt Lake Center
04:55PM 42.2464 -112.3089 66° East 497 572 35,000  Level Salt Lake Center
04:56PM 42.3008 -112.1411 66° East 491 565 35,000  Level Salt Lake Center
04:57PM 42.3558 -111.9717 66° East 491 565 35,000  Level Salt Lake Center
04:59PM 42.4214 -111.7681 66° East 491 565 35,000  Level Salt Lake Center
05:00PM 42.4758 -111.5992 66° East 490 564 35,000  Level Salt Lake Center
05:01PM 42.5300 -111.4283 67° East 492 566 35,000  Level Salt Lake Center
05:02PM 42.5842 -111.2581 67° East 492 566 35,000  Level Salt Lake Center
05:03PM 42.6375 -111.0875 67° East 492 566 35,000  Level Salt Lake Center
05:04PM 42.6978 -110.8961 67° East 490 564 35,000  Level Salt Lake Center
05:05PM 42.7503 -110.7267 67° East 492 566 35,000  Level Salt Lake Center
05:06PM 42.8058 -110.5422 68° East 488 562 35,000  Level Salt Lake Center
05:07PM 42.8558 -110.3806 67° East 484 557 35,000  Level Salt Lake Center
05:08PM 42.9069 -110.2136 67° East 486 559 35,000  Level Salt Lake Center
05:09PM 42.9639 -110.0236 68° East 488 562 35,000  Level Salt Lake Center
05:10PM 43.0197 -109.8361 68° East 486 559 35,000  Level Salt Lake Center
05:11PM 43.0378 -109.6800 81° East 496 571 35,000  Level Salt Lake Center
05:12PM 43.0575 -109.4558 83° East 496 571 35,000  Level Salt Lake Center
05:13PM 43.0747 -109.2708 83° East 494 568 35,000  Level Salt Lake Center
05:14PM 43.0911 -109.0867 83° East 491 565 35,000  Level Salt Lake Center
05:15PM 43.1075 -108.9008 83° East 494 568 35,000  Level Salt Lake Center
05:16PM 43.1231 -108.7122 83° East 499 574 35,000  Level Salt Lake Center
05:17PM 43.1406 -108.4878 84° East 499 574 35,000  Level Salt Lake Center
05:18PM 43.1586 -108.3006 82° East 499 574 35,000  Level Salt Lake Center
05:19PM 43.1883 -108.1156 78° East 500 575 35,000  Level Salt Lake Center
05:20PM 43.2167 -107.9303 78° East 500 575 35,000  Level Salt Lake Center
05:21PM 43.2456 -107.7458 78° East 498 573 35,000  Level Salt Lake Center
05:22PM 43.2797 -107.5275 78° East 494 568 35,000  Level Salt Lake Center
05:23PM 43.3069 -107.3422 79° East 496 571 35,000  Level Salt Lake Center
05:24PM 43.3347 -107.1597 78° East 494 568 35,000  Level Salt Lake Center
05:25PM 43.3622 -106.9756 78° East 494 568 35,000  Level Salt Lake Center
05:27PM 43.3967 -106.7478 78° East 491 565 35,000  Level Denver Center
05:29PM 43.4494 -106.3917 78° East 502 578 35,000  Level Salt Lake Center
05:30PM 43.4736 -106.2133 79° East 497 572 35,000  Level Salt Lake Center
05:31PM 43.5036 -106.0039 79° East 500 575 35,000  Level Salt Lake Center
05:32PM 43.5311 -105.7953 80° East 496 571 35,000  Level Denver Center
05:33PM 43.5561 -105.6167 79° East 494 568 35,000  Level Denver Center
05:34PM 43.5847 -105.4050 79° East 500 575 35,000  Level Denver Center
05:35PM 43.6078 -105.2258 80° East 497 572 35,000  Level Denver Center
05:36PM 43.6350 -105.0158 80° East 497 572 35,000  Level Denver Center
05:37PM 43.6589 -104.8361 80° East 497 572 35,000  Level Denver Center
05:38PM 43.6850 -104.6258 80° East 496 571 35,000  Level Denver Center
05:39PM 43.7067 -104.4447 81° East 497 572 35,000  Level Denver Center
05:40PM 43.7331 -104.2358 80° East 495 570 35,000  Level Denver Center
05:41PM 43.7542 -104.0556 81° East 495 570 35,000  Level Denver Center
05:42PM 43.7800 -103.8431 80° East 499 574 35,000  Level Denver Center
05:43PM 43.8011 -103.6619 81° East 499 574 35,000  Level Denver Center
05:44PM 43.8231 -103.4814 80° East 497 572 35,000  Level Denver Center
05:45PM 43.8469 -103.2689 81° East 498 573 35,000  Level Denver Center
05:46PM 43.8678 -103.0861 81° East 500 575 35,000  Level Denver Center
05:47PM 43.8908 -102.8728 81° East 502 578 35,000  Level Denver Center
05:48PM 43.9086 -102.6939 82° East 504 580 35,000  Level Denver Center
05:49PM 43.9286 -102.5000 82° East 508 585 35,000  Level Denver Center
05:50PM 43.9500 -102.2672 83° East 508 585 35,000  Level Denver Center
05:51PM 43.9689 -102.0733 82° East 509 586 35,000  Level Denver Center
05:52PM 43.9886 -101.8806 82° East 506 582 35,000  Level Denver Center
05:53PM 44.0078 -101.6867 82° East 508 585 35,000  Level Denver Center
05:55PM 44.0300 -101.4994 81° East 501 577 35,000  Level Denver Center
05:56PM 44.0489 -101.3067 82° East 505 581 35,000  Level Denver Center
05:57PM 44.0706 -101.0761 82° East 505 581 35,000  Level Denver Center
05:58PM 44.0881 -100.8831 83° East 505 581 35,000  Level Denver Center
05:59PM 44.1064 -100.6911 82° East 505 581 35,000  Level Minneapolis Center
06:00PM 44.1225 -100.4978 83° East 506 582 35,000  Level Minneapolis Center
06:01PM 44.1428 -100.2661 83° East 506 582 35,000  Level Minneapolis Center
06:02PM 44.1600 -100.0719 83° East 507 583 35,000  Level Minneapolis Center
06:03PM 44.1767 -99.8775 83° East 509 586 35,000  Level Minneapolis Center
06:04PM 44.1922 -99.6828 84° East 510 587 35,000  Level Minneapolis Center
06:05PM 44.2117 -99.4494 83° East 509 586 35,000  Level Minneapolis Center
06:06PM 44.2269 -99.2544 84° East 509 586 35,000  Level Minneapolis Center
06:07PM 44.2408 -99.0594 84° East 509 586 35,000  Level Minneapolis Center
06:08PM 44.2561 -98.8636 84° East 509 586 35,000  Level Minneapolis Center
06:09PM 44.2706 -98.6675 84° East 511 588 35,000  Level Minneapolis Center
06:10PM 44.2869 -98.4308 84° East 513 590 35,000  Level Minneapolis Center
06:11PM 44.2994 -98.2425 85° East 510 587 35,000  Level Minneapolis Center
06:12PM 44.3122 -98.0456 85° East 510 587 35,000  Level Minneapolis Center
06:13PM 44.3261 -97.8464 84° East 513 590 35,000  Level Minneapolis Center
06:14PM 44.3378 -97.6489 85° East 512 589 35,000  Level Minneapolis Center
06:15PM 44.3553 -97.4111 84° East 513 590 35,000  Level Minneapolis Center
06:16PM 44.3775 -97.2161 81° East 509 586 35,000  Level Minneapolis Center
06:17PM 44.3986 -97.0178 81° East 514 592 35,000 -60 Level Minneapolis Center
06:18PM 44.4200 -96.8211 81° East 512 589 34,900 -480 Descending Minneapolis Center
06:19PM 44.4397 -96.6233 82° East 511 588 34,000 -960 Descending Minneapolis Center
06:20PM 44.4592 -96.4244 82° East 512 589 33,000 -960 Descending Minneapolis Center
06:21PM 44.4800 -96.2247 82° East 512 589 32,100 -960 Descending Minneapolis Center
06:23PM 44.4992 -96.0239 82° East 514 592 31,100 -1,080 Descending Minneapolis Center
06:24PM 44.5214 -95.7883 82° East 507 583 29,900 -1,260 Descending Minneapolis Center
06:25PM 44.5397 -95.5922 82° East 507 583 28,600 -1,740 Descending Minneapolis Center
06:26PM 44.5567 -95.4017 83° East 495 570 26,400 -2,100 Descending Minneapolis Center
06:27PM 44.5717 -95.2189 83° East 476 548 24,300 -1,980 Descending Minneapolis Center
06:28PM 44.5878 -95.0453 83° East 454 522 22,300 -1,920 Descending Minneapolis Center
06:29PM 44.6019 -94.8781 83° East 438 504 20,300 -2,160 Descending Minneapolis Center
06:30PM 44.6189 -94.6808 83° East 427 491 17,900 -2,040 Descending Minneapolis Center
06:31PM 44.6308 -94.5394 83° East 415 478 16,100 -1,920 Descending Minneapolis Center
06:32PM 44.6439 -94.3808 83° East 411 473 14,000 -2,100 Descending Minneapolis Center
06:33PM 44.6842 -94.2008 72° East 403 464 11,800 -1,440 Descending Minneapolis Center
06:34PM 44.7156 -94.0594 73° East 381 438 11,000 -420 Descending Minneapolis Center
06:35PM 44.7472 -93.9169 73° East 383 441 11,000  Level Minneapolis Center
06:36PM 44.7797 -93.7742 72° East 380 437 11,000  Level Minneapolis Center
06:37PM 44.8106 -93.6325 73° East 381 438 11,000 -420 Level Minneapolis Center
06:38PM 44.8386 -93.5064 73° East 334 384 10,200 -1,320 Descending Minneapolis Center
06:39PM 44.8647 -93.3592 76° East 325 374 8,300 -1,260 Descending Minneapolis Center
06:40PM 44.8081 -93.2950 141° Southeast 272 313 7,600 -1,020 Descending Minneapolis Center
06:41PM 44.7394 -93.2886 176° South 256 295 6,300 -1,020 Descending Minneapolis Center
06:42PM 44.6781 -93.2742 171° South 238 274 5,600 -960 Descending Minneapolis Center
06:43PM 44.6925 -93.1947 76° East 225 259 4,300 -1,260 Descending Minneapolis Center